Terminal Aerodrome Forecast
Issued by NWS

Home | Current Version | Previous Version | Text Only | Print | Product List | Glossary On
Versions: 1 2 3 4 5 6 7 8 9 10 11 12 13 14 15 16
000
FTUS43 KDVN 190000 AAA
TAFCID
TAF AMD
KCID 190004Z 1900/1924 10012G16KT P6SM SCT050 BKN100
      TEMPO 1901/1903 3SM TSRA BKN025CB
     FM190900 10006KT P6SM OVC050
     FM191500 13007KT P6SM VCSH OVC050
      TEMPO 1918/1922 4SM SHRA BKN025=

USA.gov is the U.S. government's official web portal to all federal, state and local government web resources and services.